sensor_id;sensor_type;location;lat;lon;timestamp;P1;durP1;ratioP1;P2;durP2;ratioP2
55756;SDS011;41676;44.610;44.078;2022-12-08T00:04:20;6.22;;;2.55;;
55756;SDS011;41676;44.610;44.078;2022-12-08T00:09:25;8.60;;;2.60;;
55756;SDS011;41676;44.610;44.078;2022-12-08T00:14:34;6.45;;;2.80;;
55756;SDS011;41676;44.610;44.078;2022-12-08T00:19:39;6.25;;;2.83;;
55756;SDS011;41676;44.610;44.078;2022-12-08T00:24:41;6.80;;;2.65;;
55756;SDS011;41676;44.610;44.078;2022-12-08T00:29:44;7.22;;;3.22;;
55756;SDS011;41676;44.610;44.078;2022-12-08T00:34:45;6.75;;;2.47;;
55756;SDS011;41676;44.610;44.078;2022-12-08T00:39:46;8.13;;;2.13;;
55756;SDS011;41676;44.610;44.078;2022-12-08T00:44:47;7.90;;;2.47;;
55756;SDS011;41676;44.610;44.078;2022-12-08T00:49:48;7.40;;;2.30;;
55756;SDS011;41676;44.610;44.078;2022-12-08T00:54:48;4.85;;;2.33;;
55756;SDS011;41676;44.610;44.078;2022-12-08T00:59:49;7.32;;;2.38;;
55756;SDS011;41676;44.610;44.078;2022-12-08T01:04:50;7.90;;;2.05;;
55756;SDS011;41676;44.610;44.078;2022-12-08T01:09:51;6.68;;;2.35;;
55756;SDS011;41676;44.610;44.078;2022-12-08T01:14:52;5.35;;;2.38;;
55756;SDS011;41676;44.610;44.078;2022-12-08T01:19:52;10.55;;;2.22;;
55756;SDS011;41676;44.610;44.078;2022-12-08T01:24:53;5.97;;;2.35;;
55756;SDS011;41676;44.610;44.078;2022-12-08T01:29:54;6.97;;;2.33;;
55756;SDS011;41676;44.610;44.078;2022-12-08T01:34:55;9.27;;;2.75;;
55756;SDS011;41676;44.610;44.078;2022-12-08T01:39:56;8.02;;;2.30;;
55756;SDS011;41676;44.610;44.078;2022-12-08T01:45:00;8.10;;;2.67;;
55756;SDS011;41676;44.610;44.078;2022-12-08T01:50:03;6.57;;;2.35;;
55756;SDS011;41676;44.610;44.078;2022-12-08T01:55:09;7.13;;;2.13;;
55756;SDS011;41676;44.610;44.078;2022-12-08T02:00:17;7.05;;;1.92;;
55756;SDS011;41676;44.610;44.078;2022-12-08T02:05:20;5.90;;;2.20;;
55756;SDS011;41676;44.610;44.078;2022-12-08T02:10:24;5.72;;;2.08;;
55756;SDS011;41676;44.610;44.078;2022-12-08T02:37:27;5.55;;;1.80;;
55756;SDS011;41676;44.610;44.078;2022-12-08T02:42:35;4.72;;;1.90;;
55756;SDS011;41676;44.610;44.078;2022-12-08T02:47:47;5.78;;;1.50;;
55756;SDS011;41676;44.610;44.078;2022-12-08T02:52:49;4.03;;;1.35;;
55756;SDS011;41676;44.610;44.078;2022-12-08T03:03:18;3.40;;;0.90;;
55756;SDS011;41676;44.610;44.078;2022-12-08T03:08:32;3.90;;;1.13;;
55756;SDS011;41676;44.610;44.078;2022-12-08T03:13:53;4.85;;;1.30;;
55756;SDS011;41676;44.610;44.078;2022-12-08T03:19:08;5.55;;;1.20;;
55756;SDS011;41676;44.610;44.078;2022-12-08T03:24:19;4.45;;;1.20;;
55756;SDS011;41676;44.610;44.078;2022-12-08T03:29:22;4.55;;;1.45;;
55756;SDS011;41676;44.610;44.078;2022-12-08T03:34:24;5.22;;;1.40;;
55756;SDS011;41676;44.610;44.078;2022-12-08T03:39:27;3.65;;;1.15;;
55756;SDS011;41676;44.610;44.078;2022-12-08T03:44:28;3.85;;;1.27;;
55756;SDS011;41676;44.610;44.078;2022-12-08T03:49:29;6.00;;;1.73;;
55756;SDS011;41676;44.610;44.078;2022-12-08T03:54:30;5.53;;;1.45;;
55756;SDS011;41676;44.610;44.078;2022-12-08T03:59:31;6.93;;;1.70;;
55756;SDS011;41676;44.610;44.078;2022-12-08T04:04:31;3.08;;;1.38;;
55756;SDS011;41676;44.610;44.078;2022-12-08T04:09:32;4.60;;;1.50;;
55756;SDS011;41676;44.610;44.078;2022-12-08T04:14:33;7.15;;;1.98;;
55756;SDS011;41676;44.610;44.078;2022-12-08T04:19:34;9.75;;;2.10;;
55756;SDS011;41676;44.610;44.078;2022-12-08T04:24:35;4.72;;;1.70;;
55756;SDS011;41676;44.610;44.078;2022-12-08T04:29:35;5.65;;;1.98;;
55756;SDS011;41676;44.610;44.078;2022-12-08T04:34:36;5.82;;;1.80;;
55756;SDS011;41676;44.610;44.078;2022-12-08T04:39:37;5.18;;;1.30;;
55756;SDS011;41676;44.610;44.078;2022-12-08T04:44:38;5.30;;;1.70;;
55756;SDS011;41676;44.610;44.078;2022-12-08T04:49:38;5.55;;;1.60;;
55756;SDS011;41676;44.610;44.078;2022-12-08T04:54:39;3.28;;;1.10;;
55756;SDS011;41676;44.610;44.078;2022-12-08T04:59:40;5.78;;;1.60;;
55756;SDS011;41676;44.610;44.078;2022-12-08T05:04:41;4.70;;;1.60;;
55756;SDS011;41676;44.610;44.078;2022-12-08T05:09:42;6.10;;;1.85;;
55756;SDS011;41676;44.610;44.078;2022-12-08T05:14:43;6.10;;;2.00;;
55756;SDS011;41676;44.610;44.078;2022-12-08T05:19:43;4.88;;;1.58;;
55756;SDS011;41676;44.610;44.078;2022-12-08T05:24:44;12.80;;;1.83;;
55756;SDS011;41676;44.610;44.078;2022-12-08T05:29:45;7.00;;;1.90;;
55756;SDS011;41676;44.610;44.078;2022-12-08T05:34:47;5.63;;;1.92;;
55756;SDS011;41676;44.610;44.078;2022-12-08T05:39:48;6.93;;;1.98;;
55756;SDS011;41676;44.610;44.078;2022-12-08T05:44:48;6.00;;;1.48;;
55756;SDS011;41676;44.610;44.078;2022-12-08T05:49:49;6.45;;;1.58;;
55756;SDS011;41676;44.610;44.078;2022-12-08T05:54:50;4.70;;;1.38;;
55756;SDS011;41676;44.610;44.078;2022-12-08T05:59:51;5.30;;;1.80;;
55756;SDS011;41676;44.610;44.078;2022-12-08T06:04:52;6.57;;;2.67;;
55756;SDS011;41676;44.610;44.078;2022-12-08T06:09:52;25.98;;;5.70;;
55756;SDS011;41676;44.610;44.078;2022-12-08T06:14:53;31.23;;;8.45;;
55756;SDS011;41676;44.610;44.078;2022-12-08T06:19:54;21.65;;;6.30;;
55756;SDS011;41676;44.610;44.078;2022-12-08T06:24:55;16.25;;;5.72;;
55756;SDS011;41676;44.610;44.078;2022-12-08T06:29:55;20.60;;;8.88;;
55756;SDS011;41676;44.610;44.078;2022-12-08T06:34:56;16.80;;;6.50;;
55756;SDS011;41676;44.610;44.078;2022-12-08T06:39:57;14.85;;;5.47;;
55756;SDS011;41676;44.610;44.078;2022-12-08T06:44:58;10.55;;;2.58;;
55756;SDS011;41676;44.610;44.078;2022-12-08T06:49:59;20.58;;;5.97;;
55756;SDS011;41676;44.610;44.078;2022-12-08T06:55:00;7.68;;;2.72;;
55756;SDS011;41676;44.610;44.078;2022-12-08T07:00:02;8.65;;;2.13;;
55756;SDS011;41676;44.610;44.078;2022-12-08T07:05:05;11.10;;;4.85;;
55756;SDS011;41676;44.610;44.078;2022-12-08T07:10:06;6.47;;;2.70;;
55756;SDS011;41676;44.610;44.078;2022-12-08T07:15:07;5.25;;;2.00;;
55756;SDS011;41676;44.610;44.078;2022-12-08T07:20:09;6.28;;;2.05;;
55756;SDS011;41676;44.610;44.078;2022-12-08T07:25:10;6.05;;;2.70;;
55756;SDS011;41676;44.610;44.078;2022-12-08T07:30:11;4.78;;;2.35;;
55756;SDS011;41676;44.610;44.078;2022-12-08T07:35:12;4.28;;;1.75;;
55756;SDS011;41676;44.610;44.078;2022-12-08T07:40:13;5.13;;;2.00;;
55756;SDS011;41676;44.610;44.078;2022-12-08T07:45:14;10.05;;;2.55;;
55756;SDS011;41676;44.610;44.078;2022-12-08T07:50:15;4.13;;;1.90;;
55756;SDS011;41676;44.610;44.078;2022-12-08T07:55:15;4.55;;;1.98;;
55756;SDS011;41676;44.610;44.078;2022-12-08T08:00:17;9.63;;;2.53;;
55756;SDS011;41676;44.610;44.078;2022-12-08T08:05:18;4.53;;;2.40;;
55756;SDS011;41676;44.610;44.078;2022-12-08T08:10:19;5.13;;;2.47;;
55756;SDS011;41676;44.610;44.078;2022-12-08T08:15:20;4.97;;;2.20;;
55756;SDS011;41676;44.610;44.078;2022-12-08T08:20:21;4.90;;;2.65;;
55756;SDS011;41676;44.610;44.078;2022-12-08T08:25:22;5.18;;;2.25;;
55756;SDS011;41676;44.610;44.078;2022-12-08T08:30:23;4.95;;;2.60;;
55756;SDS011;41676;44.610;44.078;2022-12-08T08:35:24;4.00;;;2.38;;
55756;SDS011;41676;44.610;44.078;2022-12-08T08:40:25;5.05;;;2.05;;
55756;SDS011;41676;44.610;44.078;2022-12-08T08:45:26;3.45;;;1.58;;
55756;SDS011;41676;44.610;44.078;2022-12-08T08:50:27;3.53;;;1.73;;
55756;SDS011;41676;44.610;44.078;2022-12-08T08:55:28;3.50;;;1.65;;
55756;SDS011;41676;44.610;44.078;2022-12-08T09:00:29;3.60;;;1.70;;
55756;SDS011;41676;44.610;44.078;2022-12-08T09:05:29;3.17;;;1.50;;
55756;SDS011;41676;44.610;44.078;2022-12-08T09:10:30;4.18;;;1.88;;
55756;SDS011;41676;44.610;44.078;2022-12-08T09:15:31;5.55;;;2.47;;
55756;SDS011;41676;44.610;44.078;2022-12-08T09:20:32;4.20;;;2.10;;
55756;SDS011;41676;44.610;44.078;2022-12-08T09:25:33;5.15;;;2.55;;
55756;SDS011;41676;44.610;44.078;2022-12-08T09:30:34;5.55;;;3.08;;
55756;SDS011;41676;44.610;44.078;2022-12-08T09:35:35;6.53;;;3.05;;
55756;SDS011;41676;44.610;44.078;2022-12-08T09:40:37;5.90;;;3.28;;
55756;SDS011;41676;44.610;44.078;2022-12-08T09:45:51;6.43;;;3.65;;
55756;SDS011;41676;44.610;44.078;2022-12-08T09:50:54;9.52;;;4.18;;
55756;SDS011;41676;44.610;44.078;2022-12-08T09:56:00;7.35;;;4.35;;
55756;SDS011;41676;44.610;44.078;2022-12-08T10:01:08;8.52;;;4.28;;
55756;SDS011;41676;44.610;44.078;2022-12-08T10:11:25;9.73;;;4.00;;
55756;SDS011;41676;44.610;44.078;2022-12-08T10:16:37;9.80;;;3.95;;
55756;SDS011;41676;44.610;44.078;2022-12-08T10:21:40;9.00;;;3.58;;
55756;SDS011;41676;44.610;44.078;2022-12-08T10:26:41;9.40;;;3.45;;
55756;SDS011;41676;44.610;44.078;2022-12-08T10:31:42;9.52;;;3.08;;
55756;SDS011;41676;44.610;44.078;2022-12-08T10:36:47;7.30;;;3.40;;
55756;SDS011;41676;44.610;44.078;2022-12-08T10:41:53;14.02;;;4.22;;
55756;SDS011;41676;44.610;44.078;2022-12-08T10:46:59;11.65;;;4.30;;
55756;SDS011;41676;44.610;44.078;2022-12-08T10:52:23;12.20;;;4.82;;
55756;SDS011;41676;44.610;44.078;2022-12-08T10:57:24;13.73;;;5.45;;
55756;SDS011;41676;44.610;44.078;2022-12-08T11:02:25;15.73;;;5.10;;
55756;SDS011;41676;44.610;44.078;2022-12-08T11:07:26;10.77;;;4.38;;
55756;SDS011;41676;44.610;44.078;2022-12-08T11:12:27;14.50;;;5.00;;
55756;SDS011;41676;44.610;44.078;2022-12-08T11:17:35;17.88;;;4.78;;
55756;SDS011;41676;44.610;44.078;2022-12-08T11:22:43;20.13;;;5.38;;
55756;SDS011;41676;44.610;44.078;2022-12-08T11:27:46;15.32;;;4.97;;
55756;SDS011;41676;44.610;44.078;2022-12-08T11:32:53;21.45;;;5.13;;
55756;SDS011;41676;44.610;44.078;2022-12-08T11:38:02;11.68;;;4.70;;
55756;SDS011;41676;44.610;44.078;2022-12-08T11:43:07;12.68;;;5.20;;
55756;SDS011;41676;44.610;44.078;2022-12-08T11:59:49;22.00;;;5.65;;
55756;SDS011;41676;44.610;44.078;2022-12-08T12:19:39;12.90;;;5.32;;
55756;SDS011;41676;44.610;44.078;2022-12-08T12:24:46;15.67;;;5.77;;
55756;SDS011;41676;44.610;44.078;2022-12-08T12:29:51;15.65;;;6.03;;
55756;SDS011;41676;44.610;44.078;2022-12-08T12:34:57;12.88;;;4.50;;
55756;SDS011;41676;44.610;44.078;2022-12-08T12:40:01;7.57;;;4.00;;
55756;SDS011;41676;44.610;44.078;2022-12-08T12:45:10;12.07;;;3.92;;
55756;SDS011;41676;44.610;44.078;2022-12-08T12:50:12;8.00;;;4.45;;
55756;SDS011;41676;44.610;44.078;2022-12-08T13:06:14;13.50;;;3.97;;
55756;SDS011;41676;44.610;44.078;2022-12-08T13:11:22;11.85;;;5.25;;
55756;SDS011;41676;44.610;44.078;2022-12-08T13:16:25;8.35;;;3.80;;
55756;SDS011;41676;44.610;44.078;2022-12-08T13:21:37;14.20;;;4.47;;
55756;SDS011;41676;44.610;44.078;2022-12-08T13:26:42;16.17;;;4.47;;
55756;SDS011;41676;44.610;44.078;2022-12-08T13:31:46;16.50;;;5.18;;
55756;SDS011;41676;44.610;44.078;2022-12-08T13:42:23;13.25;;;6.65;;
55756;SDS011;41676;44.610;44.078;2022-12-08T13:47:33;13.43;;;5.65;;
55756;SDS011;41676;44.610;44.078;2022-12-08T13:52:40;27.50;;;5.73;;
55756;SDS011;41676;44.610;44.078;2022-12-08T13:57:46;10.63;;;4.13;;
55756;SDS011;41676;44.610;44.078;2022-12-08T14:02:50;14.48;;;5.03;;
55756;SDS011;41676;44.610;44.078;2022-12-08T14:07:55;13.65;;;6.22;;
55756;SDS011;41676;44.610;44.078;2022-12-08T14:13:05;11.55;;;4.18;;
55756;SDS011;41676;44.610;44.078;2022-12-08T14:18:25;7.43;;;3.30;;
55756;SDS011;41676;44.610;44.078;2022-12-08T14:23:33;13.05;;;4.60;;
55756;SDS011;41676;44.610;44.078;2022-12-08T14:28:35;10.95;;;4.47;;
55756;SDS011;41676;44.610;44.078;2022-12-08T14:33:36;10.05;;;4.05;;
55756;SDS011;41676;44.610;44.078;2022-12-08T14:38:37;10.85;;;4.32;;
55756;SDS011;41676;44.610;44.078;2022-12-08T14:43:38;11.93;;;3.90;;
55756;SDS011;41676;44.610;44.078;2022-12-08T14:48:42;11.13;;;3.92;;
55756;SDS011;41676;44.610;44.078;2022-12-08T14:53:45;13.93;;;3.80;;
55756;SDS011;41676;44.610;44.078;2022-12-08T14:59:04;10.68;;;3.80;;
55756;SDS011;41676;44.610;44.078;2022-12-08T15:04:23;12.07;;;3.55;;
55756;SDS011;41676;44.610;44.078;2022-12-08T15:09:36;10.55;;;3.80;;
55756;SDS011;41676;44.610;44.078;2022-12-08T15:15:00;10.05;;;3.85;;
55756;SDS011;41676;44.610;44.078;2022-12-08T15:25:32;11.90;;;3.83;;
55756;SDS011;41676;44.610;44.078;2022-12-08T15:30:34;7.95;;;4.10;;
55756;SDS011;41676;44.610;44.078;2022-12-08T15:35:35;9.35;;;4.18;;
55756;SDS011;41676;44.610;44.078;2022-12-08T15:40:35;7.05;;;3.33;;
55756;SDS011;41676;44.610;44.078;2022-12-08T15:45:36;8.85;;;3.70;;
55756;SDS011;41676;44.610;44.078;2022-12-08T15:50:37;11.55;;;4.03;;
55756;SDS011;41676;44.610;44.078;2022-12-08T15:55:38;10.80;;;4.00;;
55756;SDS011;41676;44.610;44.078;2022-12-08T16:00:40;11.13;;;4.25;;
55756;SDS011;41676;44.610;44.078;2022-12-08T16:05:40;9.35;;;4.75;;
55756;SDS011;41676;44.610;44.078;2022-12-08T16:10:41;9.32;;;4.93;;
55756;SDS011;41676;44.610;44.078;2022-12-08T16:15:43;8.77;;;5.20;;
55756;SDS011;41676;44.610;44.078;2022-12-08T16:20:44;11.05;;;5.18;;
55756;SDS011;41676;44.610;44.078;2022-12-08T16:25:45;12.52;;;5.85;;
55756;SDS011;41676;44.610;44.078;2022-12-08T16:30:46;10.98;;;5.82;;
55756;SDS011;41676;44.610;44.078;2022-12-08T16:35:47;9.88;;;5.45;;
55756;SDS011;41676;44.610;44.078;2022-12-08T16:40:48;15.07;;;5.97;;
55756;SDS011;41676;44.610;44.078;2022-12-08T16:46:15;13.43;;;6.03;;
55756;SDS011;41676;44.610;44.078;2022-12-08T16:51:22;12.95;;;5.32;;
55756;SDS011;41676;44.610;44.078;2022-12-08T16:56:23;7.90;;;5.05;;
55756;SDS011;41676;44.610;44.078;2022-12-08T17:01:23;10.30;;;4.78;;
55756;SDS011;41676;44.610;44.078;2022-12-08T17:06:24;9.88;;;4.75;;
55756;SDS011;41676;44.610;44.078;2022-12-08T17:11:25;9.98;;;4.57;;
55756;SDS011;41676;44.610;44.078;2022-12-08T17:16:27;9.02;;;4.38;;
55756;SDS011;41676;44.610;44.078;2022-12-08T17:21:28;9.10;;;4.25;;
55756;SDS011;41676;44.610;44.078;2022-12-08T17:26:29;8.68;;;3.95;;
55756;SDS011;41676;44.610;44.078;2022-12-08T17:31:30;6.63;;;3.22;;
55756;SDS011;41676;44.610;44.078;2022-12-08T17:36:31;9.63;;;3.60;;
55756;SDS011;41676;44.610;44.078;2022-12-08T17:41:32;7.90;;;3.00;;
55756;SDS011;41676;44.610;44.078;2022-12-08T17:46:33;10.25;;;3.20;;
55756;SDS011;41676;44.610;44.078;2022-12-08T17:51:34;8.00;;;3.13;;
55756;SDS011;41676;44.610;44.078;2022-12-08T17:56:35;13.90;;;3.47;;
55756;SDS011;41676;44.610;44.078;2022-12-08T18:01:36;11.30;;;3.65;;
55756;SDS011;41676;44.610;44.078;2022-12-08T18:06:38;12.73;;;3.40;;
55756;SDS011;41676;44.610;44.078;2022-12-08T18:11:39;6.63;;;2.80;;
55756;SDS011;41676;44.610;44.078;2022-12-08T18:16:44;9.23;;;3.45;;
55756;SDS011;41676;44.610;44.078;2022-12-08T18:21:46;6.25;;;2.95;;
55756;SDS011;41676;44.610;44.078;2022-12-08T18:26:47;8.77;;;3.20;;
55756;SDS011;41676;44.610;44.078;2022-12-08T18:31:48;6.22;;;2.78;;
55756;SDS011;41676;44.610;44.078;2022-12-08T18:36:49;9.43;;;3.28;;
55756;SDS011;41676;44.610;44.078;2022-12-08T18:41:51;6.72;;;2.90;;
55756;SDS011;41676;44.610;44.078;2022-12-08T18:46:52;9.07;;;2.88;;
55756;SDS011;41676;44.610;44.078;2022-12-08T18:51:53;7.13;;;2.85;;
55756;SDS011;41676;44.610;44.078;2022-12-08T18:56:54;5.88;;;3.08;;
55756;SDS011;41676;44.610;44.078;2022-12-08T19:01:54;6.50;;;2.65;;
55756;SDS011;41676;44.610;44.078;2022-12-08T19:06:56;5.15;;;2.45;;
55756;SDS011;41676;44.610;44.078;2022-12-08T19:11:57;7.15;;;2.70;;
55756;SDS011;41676;44.610;44.078;2022-12-08T19:16:58;7.55;;;2.80;;
55756;SDS011;41676;44.610;44.078;2022-12-08T19:21:59;5.22;;;2.40;;
55756;SDS011;41676;44.610;44.078;2022-12-08T19:27:00;8.73;;;2.85;;
55756;SDS011;41676;44.610;44.078;2022-12-08T19:32:02;4.72;;;2.53;;
55756;SDS011;41676;44.610;44.078;2022-12-08T19:37:04;6.65;;;2.92;;
55756;SDS011;41676;44.610;44.078;2022-12-08T19:42:13;5.22;;;2.40;;
55756;SDS011;41676;44.610;44.078;2022-12-08T19:47:34;4.22;;;2.10;;
55756;SDS011;41676;44.610;44.078;2022-12-08T19:52:34;8.32;;;2.60;;
55756;SDS011;41676;44.610;44.078;2022-12-08T19:57:35;8.73;;;2.47;;
55756;SDS011;41676;44.610;44.078;2022-12-08T20:02:36;8.43;;;2.92;;
55756;SDS011;41676;44.610;44.078;2022-12-08T20:07:37;4.95;;;2.13;;
55756;SDS011;41676;44.610;44.078;2022-12-08T20:12:39;6.20;;;2.08;;
55756;SDS011;41676;44.610;44.078;2022-12-08T20:17:40;7.57;;;2.38;;
55756;SDS011;41676;44.610;44.078;2022-12-08T20:22:42;5.63;;;2.13;;
55756;SDS011;41676;44.610;44.078;2022-12-08T20:27:44;4.72;;;2.30;;
55756;SDS011;41676;44.610;44.078;2022-12-08T20:32:45;6.15;;;2.63;;
55756;SDS011;41676;44.610;44.078;2022-12-08T20:37:46;6.03;;;2.38;;
55756;SDS011;41676;44.610;44.078;2022-12-08T20:42:46;5.35;;;2.45;;
55756;SDS011;41676;44.610;44.078;2022-12-08T20:47:48;5.18;;;2.47;;
55756;SDS011;41676;44.610;44.078;2022-12-08T20:52:49;5.10;;;2.40;;
55756;SDS011;41676;44.610;44.078;2022-12-08T20:57:50;7.88;;;2.70;;
55756;SDS011;41676;44.610;44.078;2022-12-08T21:02:51;8.43;;;2.65;;
55756;SDS011;41676;44.610;44.078;2022-12-08T21:07:51;7.13;;;2.50;;
55756;SDS011;41676;44.610;44.078;2022-12-08T21:12:52;10.70;;;2.50;;
55756;SDS011;41676;44.610;44.078;2022-12-08T21:17:53;6.65;;;2.25;;
55756;SDS011;41676;44.610;44.078;2022-12-08T21:22:54;7.28;;;2.10;;
55756;SDS011;41676;44.610;44.078;2022-12-08T21:27:54;10.80;;;2.13;;
55756;SDS011;41676;44.610;44.078;2022-12-08T21:32:55;6.47;;;2.00;;
55756;SDS011;41676;44.610;44.078;2022-12-08T21:37:56;4.00;;;2.00;;
55756;SDS011;41676;44.610;44.078;2022-12-08T21:42:57;10.95;;;1.98;;
55756;SDS011;41676;44.610;44.078;2022-12-08T21:47:58;5.63;;;1.88;;
55756;SDS011;41676;44.610;44.078;2022-12-08T21:52:59;9.13;;;2.35;;
55756;SDS011;41676;44.610;44.078;2022-12-08T21:58:00;6.50;;;2.28;;
55756;SDS011;41676;44.610;44.078;2022-12-08T22:03:01;4.97;;;2.03;;
55756;SDS011;41676;44.610;44.078;2022-12-08T22:08:03;5.15;;;2.20;;
55756;SDS011;41676;44.610;44.078;2022-12-08T22:13:04;11.48;;;2.30;;
55756;SDS011;41676;44.610;44.078;2022-12-08T22:18:05;6.38;;;2.20;;
55756;SDS011;41676;44.610;44.078;2022-12-08T22:23:05;5.00;;;1.80;;
55756;SDS011;41676;44.610;44.078;2022-12-08T22:28:06;8.50;;;2.33;;
55756;SDS011;41676;44.610;44.078;2022-12-08T22:33:07;7.43;;;2.90;;
55756;SDS011;41676;44.610;44.078;2022-12-08T22:38:08;5.43;;;2.20;;
55756;SDS011;41676;44.610;44.078;2022-12-08T22:43:09;6.55;;;2.05;;
55756;SDS011;41676;44.610;44.078;2022-12-08T22:48:09;8.20;;;2.72;;
55756;SDS011;41676;44.610;44.078;2022-12-08T22:53:10;6.30;;;2.65;;
55756;SDS011;41676;44.610;44.078;2022-12-08T22:58:11;9.10;;;2.75;;
55756;SDS011;41676;44.610;44.078;2022-12-08T23:03:12;5.30;;;2.58;;
55756;SDS011;41676;44.610;44.078;2022-12-08T23:08:14;8.98;;;2.50;;
55756;SDS011;41676;44.610;44.078;2022-12-08T23:13:17;8.05;;;3.47;;
55756;SDS011;41676;44.610;44.078;2022-12-08T23:18:18;5.80;;;2.75;;
55756;SDS011;41676;44.610;44.078;2022-12-08T23:23:19;8.25;;;2.55;;
55756;SDS011;41676;44.610;44.078;2022-12-08T23:28:20;8.68;;;2.47;;
55756;SDS011;41676;44.610;44.078;2022-12-08T23:33:21;8.52;;;2.80;;
55756;SDS011;41676;44.610;44.078;2022-12-08T23:38:22;4.45;;;2.10;;
55756;SDS011;41676;44.610;44.078;2022-12-08T23:43:23;4.68;;;2.05;;
55756;SDS011;41676;44.610;44.078;2022-12-08T23:48:24;11.05;;;2.63;;
55756;SDS011;41676;44.610;44.078;2022-12-08T23:53:30;7.03;;;2.70;;
55756;SDS011;41676;44.610;44.078;2022-12-08T23:58:32;7.32;;;2.58;;
